Time;durP1;ratioP1;P1;durP2;ratioP2;P2;SDS_P1;SDS_P2;PMS_P1;PMS_P2;Temp;Humidity;BMP_temperature;BMP_pressure;BME280_temperature;BME280_humidity;BME280_pressure;Samples;Min_cycle;Max_cycle;Signal;HPM_P1;HPM_P2
2023/04/20 00:01:02;;;;;;;11.57;10.15;;;6.00;99.90;;;;;;4968182;28;20404;-53
2023/04/20 00:03:48;;;;;;;12.13;10.13;;;5.90;99.90;;;;;;4954331;28;20032;-50
2023/04/20 00:06:34;;;;;;;12.40;10.82;;;6.00;99.90;;;;;;4972269;28;20038;-51
2023/04/20 00:09:20;;;;;;;11.55;9.20;;;6.00;99.90;;;;;;4971074;28;20142;-50
2023/04/20 00:12:06;;;;;;;13.60;10.82;;;5.90;99.90;;;;;;4972580;28;20027;-52
2023/04/20 00:14:52;;;;;;;14.38;10.57;;;6.00;99.90;;;;;;4972420;28;20041;-52
2023/04/20 00:17:38;;;;;;;11.60;10.07;;;5.90;99.90;;;;;;4967187;28;20039;-49
2023/04/20 00:20:24;;;;;;;13.18;10.88;;;5.90;99.90;;;;;;4977827;28;20042;-52
2023/04/20 00:23:10;;;;;;;13.73;11.18;;;5.90;99.90;;;;;;4980905;28;20053;-52
2023/04/20 00:25:56;;;;;;;12.98;10.93;;;5.90;99.90;;;;;;4972027;28;20023;-55
2023/04/20 00:28:42;;;;;;;16.65;11.18;;;5.90;99.90;;;;;;4954260;28;20103;-52
2023/04/20 00:31:30;;;;;;;13.93;10.93;;;5.80;99.90;;;;;;4971614;28;20036;-53
2023/04/20 00:34:16;;;;;;;13.82;11.65;;;5.70;99.90;;;;;;4972471;28;20114;-52
2023/04/20 00:37:02;;;;;;;14.40;11.20;;;5.80;99.90;;;;;;4972390;28;20113;-53
2023/04/20 00:39:48;;;;;;;13.60;11.18;;;5.80;99.90;;;;;;4971711;28;20503;-56
2023/04/20 00:42:34;;;;;;;15.55;11.80;;;5.80;99.90;;;;;;4953108;29;20030;-53
2023/04/20 00:45:21;;;;;;;15.05;11.70;;;5.70;99.90;;;;;;4953091;28;20523;-52
2023/04/20 00:48:07;;;;;;;16.60;12.43;;;5.70;99.90;;;;;;4967414;28;20403;-52
2023/04/20 00:50:53;;;;;;;18.13;12.73;;;5.70;99.90;;;;;;4972096;28;20035;-54
2023/04/20 00:53:39;;;;;;;14.52;11.68;;;5.70;99.90;;;;;;4971645;28;20066;-53
2023/04/20 00:56:25;;;;;;;15.73;11.93;;;5.80;99.90;;;;;;4972063;28;20408;-55
2023/04/20 00:59:11;;;;;;;15.02;11.07;;;5.90;99.90;;;;;;4970998;28;20114;-53
2023/04/20 01:01:58;;;;;;;12.90;10.98;;;5.80;99.90;;;;;;4972204;28;20039;-50
2023/04/20 01:04:46;;;;;;;14.52;11.85;;;5.90;99.90;;;;;;4970039;28;20395;-49
2023/04/20 01:07:32;;;;;;;15.88;10.65;;;6.00;99.90;;;;;;4956982;28;20449;-48
2023/04/20 01:10:18;;;;;;;13.63;10.55;;;6.10;99.90;;;;;;4973933;28;20424;-58
2023/04/20 01:13:04;;;;;;;13.30;10.38;;;6.10;99.90;;;;;;4959359;28;20039;-54
2023/04/20 01:15:49;;;;;;;12.20;10.18;;;6.00;99.90;;;;;;4964861;28;20027;-53
2023/04/20 01:18:47;;;;;;;13.02;10.18;;;6.10;99.90;;;;;;4970168;28;20081;-55
2023/04/20 01:21:33;;;;;;;11.63;10.20;;;6.20;99.90;;;;;;4979881;28;20041;-49
2023/04/20 01:24:19;;;;;;;12.73;10.88;;;6.20;99.90;;;;;;4949833;28;20115;-50
2023/04/20 01:27:05;;;;;;;11.27;10.02;;;6.20;99.90;;;;;;4970548;28;20038;-50
2023/04/20 01:29:51;;;;;;;11.80;10.43;;;6.20;99.90;;;;;;4970171;28;20030;-52
2023/04/20 01:32:37;;;;;;;11.88;10.63;;;6.30;99.90;;;;;;4969342;28;20522;-50
2023/04/20 01:35:23;;;;;;;11.77;10.00;;;6.30;99.90;;;;;;4970140;28;20122;-50
2023/04/20 01:38:09;;;;;;;12.07;9.90;;;6.40;99.90;;;;;;4969779;28;20030;-49
2023/04/20 01:40:55;;;;;;;13.25;10.57;;;6.30;99.90;;;;;;4970667;28;20074;-52
2023/04/20 01:43:41;;;;;;;11.57;10.38;;;6.40;99.90;;;;;;4971382;28;20038;-52
2023/04/20 01:46:27;;;;;;;10.35;9.25;;;6.50;99.90;;;;;;4982713;28;20053;-55
2023/04/20 01:49:13;;;;;;;12.88;9.02;;;6.50;99.90;;;;;;4967321;28;20031;-51
2023/04/20 01:51:59;;;;;;;11.48;9.50;;;6.40;99.90;;;;;;4969264;28;20035;-51
2023/04/20 01:54:45;;;;;;;11.40;9.63;;;6.40;99.90;;;;;;4974551;28;20030;-52
2023/04/20 01:57:31;;;;;;;10.45;9.35;;;6.30;99.90;;;;;;4950065;28;20038;-56
2023/04/20 02:00:18;;;;;;;12.57;9.02;;;6.20;99.90;;;;;;4969783;28;20066;-54
2023/04/20 02:03:04;;;;;;;10.23;9.02;;;6.30;99.90;;;;;;4972820;28;20034;-48
2023/04/20 02:05:49;;;;;;;10.73;8.75;;;6.30;99.90;;;;;;4972842;28;20031;-50
2023/04/20 02:08:35;;;;;;;11.23;9.95;;;6.20;99.90;;;;;;4975305;28;20043;-53
2023/04/20 02:11:21;;;;;;;10.43;8.70;;;6.30;99.90;;;;;;4974067;28;20085;-53
2023/04/20 02:14:07;;;;;;;10.68;9.38;;;6.30;99.90;;;;;;4972420;28;20046;-56
2023/04/20 02:16:53;;;;;;;10.50;9.38;;;6.30;99.90;;;;;;4973420;28;20058;-47
2023/04/20 02:19:39;;;;;;;10.13;9.13;;;6.30;99.90;;;;;;4956369;28;20062;-47
2023/04/20 02:22:25;;;;;;;10.98;9.30;;;6.20;99.90;;;;;;4973456;28;20039;-47
2023/04/20 02:25:11;;;;;;;9.93;8.73;;;6.10;99.90;;;;;;4973322;28;20496;-47
2023/04/20 02:27:57;;;;;;;13.15;10.30;;;6.00;99.90;;;;;;4972175;28;20031;-46
2023/04/20 02:30:43;;;;;;;10.65;9.55;;;6.00;99.90;;;;;;4971622;28;20106;-48
2023/04/20 02:33:30;;;;;;;11.02;9.80;;;6.00;99.90;;;;;;4973787;28;20042;-51
2023/04/20 02:36:15;;;;;;;10.68;9.30;;;5.90;99.90;;;;;;4973936;28;20110;-46
2023/04/20 02:39:02;;;;;;;12.57;9.10;;;5.90;99.90;;;;;;4973723;28;20453;-48
2023/04/20 02:41:48;;;;;;;10.73;9.60;;;6.10;99.90;;;;;;4973181;28;20031;-47
2023/04/20 02:44:34;;;;;;;10.38;8.85;;;6.00;99.90;;;;;;4973697;28;20081;-47
2023/04/20 02:47:20;;;;;;;11.65;9.32;;;6.10;99.90;;;;;;4971827;28;20104;-49
2023/04/20 02:50:07;;;;;;;11.68;9.55;;;6.20;99.90;;;;;;4973261;28;20053;-48
2023/04/20 02:52:53;;;;;;;10.63;9.52;;;6.20;99.90;;;;;;4974797;28;20070;-53
2023/04/20 02:55:39;;;;;;;10.88;9.25;;;6.20;99.90;;;;;;4973149;28;20513;-52
2023/04/20 02:58:25;;;;;;;9.88;8.65;;;6.20;99.90;;;;;;4976101;28;20519;-51
2023/04/20 03:01:11;;;;;;;9.73;8.65;;;6.30;99.90;;;;;;4975240;28;20136;-48
2023/04/20 03:03:57;;;;;;;10.98;9.80;;;6.30;99.90;;;;;;4960024;28;20092;-47
2023/04/20 03:06:43;;;;;;;11.70;9.88;;;6.20;99.90;;;;;;4975465;28;20041;-45
2023/04/20 03:09:29;;;;;;;11.30;9.77;;;6.20;99.90;;;;;;4975166;28;20026;-48
2023/04/20 03:12:16;;;;;;;11.50;9.88;;;6.20;99.90;;;;;;4973889;28;20041;-48
2023/04/20 03:15:05;;;;;;;11.52;10.32;;;6.20;99.90;;;;;;4975311;28;20038;-49
2023/04/20 03:17:51;;;;;;;12.93;11.13;;;6.20;99.90;;;;;;4973218;28;20062;-50
2023/04/20 03:20:37;;;;;;;13.57;10.65;;;6.10;99.90;;;;;;4952275;29;20067;-51
2023/04/20 03:23:23;;;;;;;13.85;11.35;;;6.10;99.90;;;;;;4968869;28;20073;-48
2023/04/20 03:26:09;;;;;;;12.00;10.38;;;6.10;99.90;;;;;;4972965;28;20415;-47
2023/04/20 03:28:55;;;;;;;12.10;10.90;;;6.10;99.90;;;;;;4972410;28;20031;-51
2023/04/20 03:31:40;;;;;;;11.63;10.40;;;6.10;99.90;;;;;;4972919;28;20039;-53
2023/04/20 03:34:26;;;;;;;12.25;10.20;;;6.10;99.90;;;;;;4973890;28;20037;-55
2023/04/20 03:37:13;;;;;;;11.65;10.45;;;6.10;99.90;;;;;;4972417;28;20531;-51
2023/04/20 03:39:59;;;;;;;12.13;10.35;;;6.00;99.90;;;;;;4973195;28;20046;-49
2023/04/20 03:42:45;;;;;;;16.45;11.88;;;5.90;99.90;;;;;;4972463;28;20062;-48
2023/04/20 03:45:31;;;;;;;18.08;12.75;;;5.90;99.90;;;;;;4969933;28;20031;-50
2023/04/20 03:48:17;;;;;;;19.15;12.93;;;5.90;99.90;;;;;;4972714;28;20026;-50
2023/04/20 03:51:03;;;;;;;18.85;12.88;;;5.90;99.90;;;;;;4955752;28;20050;-52
2023/04/20 03:53:50;;;;;;;19.10;13.68;;;5.80;99.90;;;;;;4972891;28;20043;-50
2023/04/20 03:56:36;;;;;;;15.52;13.07;;;5.80;99.90;;;;;;4953224;28;20034;-49
2023/04/20 03:59:22;;;;;;;20.67;12.98;;;5.80;99.90;;;;;;4972605;28;20031;-48
2023/04/20 04:02:09;;;;;;;21.45;12.95;;;5.70;99.90;;;;;;4972507;28;20566;-52
2023/04/20 04:04:55;;;;;;;26.73;16.70;;;5.80;99.90;;;;;;4972245;28;20110;-47
2023/04/20 04:07:41;;;;;;;26.40;15.60;;;5.80;99.90;;;;;;4971196;28;20439;-47
2023/04/20 04:10:27;;;;;;;21.45;14.45;;;5.70;99.90;;;;;;4972041;28;20081;-46
2023/04/20 04:13:13;;;;;;;18.08;13.27;;;5.80;99.90;;;;;;4972233;28;20411;-46
2023/04/20 04:15:59;;;;;;;21.05;13.45;;;5.90;99.90;;;;;;4972433;28;20455;-50
2023/04/20 04:18:46;;;;;;;19.52;12.20;;;6.00;99.90;;;;;;4972000;28;20031;-46
2023/04/20 04:21:32;;;;;;;18.05;12.10;;;6.00;99.90;;;;;;4971367;28;20466;-46
2023/04/20 04:24:18;;;;;;;16.40;11.10;;;6.10;99.90;;;;;;4972806;28;20464;-49
2023/04/20 04:27:04;;;;;;;18.73;12.30;;;6.10;99.90;;;;;;4971774;28;20045;-54
2023/04/20 04:29:50;;;;;;;17.88;11.73;;;6.10;99.90;;;;;;4975503;28;20035;-50
2023/04/20 04:32:36;;;;;;;17.40;12.15;;;6.10;99.90;;;;;;4966048;28;20038;-52
2023/04/20 04:35:22;;;;;;;19.90;12.68;;;6.10;99.90;;;;;;4980864;28;20064;-53
2023/04/20 04:38:08;;;;;;;17.83;11.93;;;6.20;99.90;;;;;;4978059;28;20042;-55
2023/04/20 04:40:55;;;;;;;15.32;11.85;;;6.20;99.90;;;;;;4972378;28;20042;-51
2023/04/20 04:43:41;;;;;;;20.17;13.60;;;6.30;99.90;;;;;;4956074;28;20058;-53
2023/04/20 04:46:27;;;;;;;18.25;13.13;;;6.40;99.90;;;;;;4957664;28;20557;-49
2023/04/20 04:49:13;;;;;;;20.45;13.73;;;6.50;99.90;;;;;;4945055;28;20028;-56
2023/04/20 04:51:59;;;;;;;19.35;13.65;;;6.40;99.90;;;;;;4970917;28;20530;-48
2023/04/20 04:54:45;;;;;;;20.25;14.43;;;6.40;99.90;;;;;;4972145;28;20126;-49
2023/04/20 04:57:31;;;;;;;17.85;14.05;;;6.40;99.90;;;;;;4952500;28;20035;-53
2023/04/20 05:00:18;;;;;;;16.30;13.48;;;6.40;99.90;;;;;;4969560;28;20037;-52
2023/04/20 05:03:04;;;;;;;19.67;13.35;;;6.40;99.90;;;;;;4962026;28;20042;-50
2023/04/20 05:05:49;;;;;;;21.75;13.75;;;6.40;99.90;;;;;;4971166;28;20034;-54
2023/04/20 05:08:35;;;;;;;20.08;14.15;;;6.50;99.90;;;;;;4970521;28;20110;-48
2023/04/20 05:11:21;;;;;;;17.58;13.27;;;6.50;99.90;;;;;;4971005;28;20031;-50
2023/04/20 05:14:07;;;;;;;14.90;11.98;;;6.60;99.90;;;;;;4971696;28;20090;-52
2023/04/20 05:16:53;;;;;;;12.35;10.10;;;6.60;99.90;;;;;;4971567;28;20039;-47
2023/04/20 05:19:39;;;;;;;13.25;9.70;;;6.70;99.90;;;;;;4969847;28;20139;-47
2023/04/20 05:22:25;;;;;;;11.20;9.35;;;6.70;99.90;;;;;;4965937;28;20046;-54
2023/04/20 05:25:11;;;;;;;12.30;8.70;;;6.70;99.90;;;;;;4959989;28;20510;-51
2023/04/20 05:27:57;;;;;;;10.68;8.45;;;6.70;99.90;;;;;;4970529;28;20101;-51
2023/04/20 05:30:43;;;;;;;11.35;9.00;;;6.60;99.90;;;;;;4971207;28;20522;-51
2023/04/20 05:33:29;;;;;;;11.80;8.90;;;6.50;99.90;;;;;;4972052;28;20026;-48
2023/04/20 05:36:15;;;;;;;11.48;9.07;;;6.60;99.90;;;;;;4967293;28;20071;-54
2023/04/20 05:39:01;;;;;;;15.45;10.32;;;6.60;99.90;;;;;;4959673;28;20248;-56
2023/04/20 05:41:47;;;;;;;12.45;10.27;;;6.70;99.90;;;;;;4970383;28;20043;-47
2023/04/20 05:44:35;;;;;;;11.50;9.65;;;6.80;99.90;;;;;;4958122;28;20410;-52
2023/04/20 05:47:21;;;;;;;12.95;9.82;;;6.80;99.90;;;;;;4956005;28;20058;-52
2023/04/20 05:50:08;;;;;;;11.93;9.95;;;6.80;99.90;;;;;;4957176;28;20020;-51
2023/04/20 05:52:53;;;;;;;12.75;10.32;;;6.90;99.90;;;;;;4976588;28;20034;-53
2023/04/20 05:55:40;;;;;;;11.82;9.95;;;6.90;99.90;;;;;;4963439;28;20039;-56
2023/04/20 05:58:26;;;;;;;13.23;9.73;;;7.00;99.90;;;;;;4954904;28;20054;-51
2023/04/20 06:01:12;;;;;;;12.48;9.43;;;6.80;99.90;;;;;;4969606;28;20031;-47
2023/04/20 06:03:58;;;;;;;11.07;9.50;;;6.80;99.90;;;;;;4956502;28;20071;-54
2023/04/20 06:06:44;;;;;;;10.70;8.82;;;6.80;99.90;;;;;;4976264;28;20026;-53
2023/04/20 06:09:30;;;;;;;12.85;10.07;;;6.80;99.90;;;;;;4976771;28;20530;-46
2023/04/20 06:12:16;;;;;;;14.00;10.18;;;6.80;99.90;;;;;;4961554;28;20027;-47
2023/04/20 06:15:03;;;;;;;11.23;10.00;;;6.90;99.90;;;;;;4978046;28;20054;-47
2023/04/20 06:17:49;;;;;;;14.13;11.43;;;6.90;99.90;;;;;;4962775;28;20579;-49
2023/04/20 06:20:35;;;;;;;14.98;11.77;;;6.80;99.90;;;;;;4976517;28;20045;-45
2023/04/20 06:23:21;;;;;;;17.02;12.63;;;6.60;99.90;;;;;;4981125;28;20063;-50
2023/04/20 06:26:07;;;;;;;14.43;12.38;;;6.60;99.90;;;;;;4971921;28;20027;-49
2023/04/20 06:28:53;;;;;;;14.05;12.55;;;6.50;99.90;;;;;;4986293;28;20023;-46
2023/04/20 06:31:39;;;;;;;15.00;13.40;;;6.50;99.90;;;;;;4985223;28;20031;-48
2023/04/20 06:34:25;;;;;;;17.20;14.80;;;6.60;99.90;;;;;;4979035;28;20054;-47
2023/04/20 06:37:11;;;;;;;15.68;14.02;;;6.60;99.90;;;;;;4976039;28;20035;-47
2023/04/20 06:39:57;;;;;;;16.95;14.40;;;6.50;99.90;;;;;;4976321;28;20089;-50
2023/04/20 06:42:43;;;;;;;16.52;14.30;;;6.60;99.90;;;;;;4975619;28;20484;-47
2023/04/20 06:45:29;;;;;;;16.70;14.95;;;6.60;99.90;;;;;;4976172;28;20030;-46
2023/04/20 06:48:15;;;;;;;17.65;15.20;;;6.60;99.90;;;;;;4975831;28;20038;-45
2023/04/20 06:51:00;;;;;;;17.63;15.52;;;6.70;99.90;;;;;;4975911;28;20041;-45
2023/04/20 06:53:46;;;;;;;16.70;14.50;;;6.60;99.90;;;;;;4975759;28;20495;-46
2023/04/20 06:56:32;;;;;;;17.08;15.27;;;6.60;99.90;;;;;;4975141;28;20491;-46
2023/04/20 06:59:18;;;;;;;17.08;15.27;;;6.70;99.90;;;;;;4975874;28;20034;-45
2023/04/20 07:02:04;;;;;;;17.83;16.02;;;6.80;99.90;;;;;;4974730;28;20023;-46
2023/04/20 07:04:50;;;;;;;17.23;15.52;;;6.90;99.90;;;;;;4960815;28;20163;-48
2023/04/20 07:07:37;;;;;;;16.30;14.80;;;7.00;99.90;;;;;;4975594;28;20027;-49
2023/04/20 07:10:23;;;;;;;15.98;14.40;;;7.10;99.90;;;;;;4975003;28;20435;-45
2023/04/20 07:13:09;;;;;;;15.85;14.25;;;7.20;99.90;;;;;;4975036;28;20566;-45
2023/04/20 07:15:55;;;;;;;15.98;14.27;;;7.30;99.90;;;;;;4960721;28;20086;-46
2023/04/20 07:18:41;;;;;;;15.95;14.45;;;7.30;99.90;;;;;;4975236;28;20034;-49
2023/04/20 07:21:26;;;;;;;15.32;13.75;;;7.30;99.90;;;;;;4974159;28;20388;-45
2023/04/20 07:24:12;;;;;;;16.10;14.50;;;7.20;99.90;;;;;;4975491;28;20027;-49
2023/04/20 07:26:58;;;;;;;15.70;14.07;;;7.20;99.90;;;;;;4975603;28;20058;-48
2023/04/20 07:29:44;;;;;;;16.90;15.15;;;7.20;99.90;;;;;;4975221;28;20400;-49
2023/04/20 07:32:30;;;;;;;16.50;14.75;;;7.30;99.90;;;;;;4974541;28;20388;-48
2023/04/20 07:35:16;;;;;;;14.63;13.23;;;7.20;99.90;;;;;;4974142;28;20130;-51
2023/04/20 07:38:02;;;;;;;16.95;15.20;;;7.40;99.90;;;;;;4974705;28;20035;-49
2023/04/20 07:40:48;;;;;;;17.02;15.32;;;7.50;99.90;;;;;;4974493;28;20416;-46
2023/04/20 07:43:34;;;;;;;17.70;15.02;;;7.40;99.90;;;;;;4960631;28;20099;-45
2023/04/20 07:46:22;;;;;;;16.95;15.18;;;7.30;99.90;;;;;;4974886;28;20180;-46
2023/04/20 07:49:07;;;;;;;16.08;14.38;;;7.30;99.90;;;;;;4974413;28;20027;-46
2023/04/20 07:51:53;;;;;;;17.88;16.08;;;7.20;99.90;;;;;;4974954;28;20031;-46
2023/04/20 07:54:39;;;;;;;18.23;16.27;;;6.90;99.90;;;;;;4974698;28;20058;-50
2023/04/20 07:57:27;;;;;;;18.23;16.33;;;6.90;99.90;;;;;;4974328;28;20066;-49
2023/04/20 08:00:13;;;;;;;18.23;16.33;;;7.00;99.90;;;;;;4973855;28;20022;-45
2023/04/20 08:03:00;;;;;;;20.00;17.90;;;7.20;99.90;;;;;;4973402;28;20050;-51
2023/04/20 08:05:45;;;;;;;19.60;17.60;;;7.40;99.90;;;;;;4973782;28;20449;-48
2023/04/20 08:08:31;;;;;;;19.90;17.90;;;7.60;99.90;;;;;;4959767;28;20031;-50
2023/04/20 08:11:18;;;;;;;19.15;16.98;;;7.90;99.90;;;;;;4960080;28;20038;-47
2023/04/20 08:14:03;;;;;;;19.20;17.30;;;8.10;99.90;;;;;;4959959;28;20038;-45
2023/04/20 08:16:50;;;;;;;19.13;16.80;;;8.00;99.90;;;;;;4946113;28;20031;-47
2023/04/20 08:19:36;;;;;;;20.20;17.05;;;7.80;99.90;;;;;;4973823;28;20492;-50
2023/04/20 08:22:25;;;;;;;19.83;17.67;;;7.60;99.90;;;;;;4960170;28;20034;-45
2023/04/20 08:25:11;;;;;;;18.55;16.75;;;7.60;99.90;;;;;;4973408;28;20468;-46
2023/04/20 08:27:57;;;;;;;20.00;17.88;;;7.60;99.90;;;;;;4973744;28;20026;-46
2023/04/20 08:30:44;;;;;;;19.90;17.92;;;7.60;99.90;;;;;;4973709;28;20023;-48
2023/04/20 08:33:31;;;;;;;19.80;17.80;;;7.70;99.90;;;;;;4973289;28;20412;-52
2023/04/20 08:36:17;;;;;;;20.48;18.38;;;8.00;99.90;;;;;;4973145;28;20030;-50
2023/04/20 08:39:11;;;;;;;20.02;17.95;;;7.90;99.90;;;;;;4971863;28;20030;-46
2023/04/20 08:41:57;;;;;;;20.23;18.30;;;7.90;99.90;;;;;;4972102;28;20035;-49
2023/04/20 08:44:43;;;;;;;20.27;18.17;;;8.00;99.90;;;;;;4973082;28;20290;-45
2023/04/20 08:47:31;;;;;;;18.92;16.98;;;8.00;99.90;;;;;;4972844;28;20492;-48
2023/04/20 08:50:19;;;;;;;18.85;16.95;;;7.90;99.90;;;;;;4972594;28;20511;-48
2023/04/20 08:53:05;;;;;;;17.10;15.40;;;7.80;99.90;;;;;;4972690;28;20034;-46
2023/04/20 08:55:51;;;;;;;15.85;14.25;;;7.90;99.90;;;;;;4973076;28;20474;-47
2023/04/20 08:58:41;;;;;;;16.23;14.52;;;7.80;99.90;;;;;;4973382;28;20097;-47
2023/04/20 09:01:27;;;;;;;14.68;13.02;;;7.80;99.90;;;;;;4964340;28;20073;-45
2023/04/20 09:04:21;;;;;;;14.18;12.68;;;8.10;99.90;;;;;;4976335;28;20023;-47
2023/04/20 09:07:17;;;;;;;14.15;12.65;;;8.10;99.90;;;;;;4972977;28;20023;-45
2023/04/20 09:10:03;;;;;;;14.35;12.85;;;8.00;99.90;;;;;;4972528;28;20114;-51
2023/04/20 09:12:53;;;;;;;14.55;13.05;;;8.10;99.90;;;;;;4969380;28;20015;-45
2023/04/20 09:15:38;;;;;;;14.85;13.35;;;8.10;99.90;;;;;;4968761;28;20141;-46
2023/04/20 09:18:24;;;;;;;15.27;13.45;;;8.30;99.90;;;;;;4969635;28;20479;-48
2023/04/20 09:21:11;;;;;;;15.68;13.85;;;8.40;99.90;;;;;;4973817;28;20642;-45
2023/04/20 09:24:06;;;;;;;14.38;12.88;;;8.40;99.90;;;;;;4975323;28;20041;-48
2023/04/20 09:26:52;;;;;;;13.85;12.48;;;8.90;99.90;;;;;;4970229;28;20022;-51
2023/04/20 09:29:38;;;;;;;15.10;13.50;;;9.20;99.90;;;;;;4970684;28;20026;-48
2023/04/20 09:32:25;;;;;;;14.27;12.73;;;9.50;99.90;;;;;;4971635;28;20039;-47
2023/04/20 09:35:11;;;;;;;13.98;12.55;;;9.60;99.90;;;;;;4971471;28;20057;-49
2023/04/20 09:37:57;;;;;;;15.07;13.35;;;9.60;99.90;;;;;;4971022;28;20034;-47
2023/04/20 09:40:43;;;;;;;14.25;12.57;;;9.50;99.90;;;;;;4947018;28;20406;-45
2023/04/20 09:43:30;;;;;;;15.15;13.65;;;9.20;99.90;;;;;;4968824;28;20037;-48
2023/04/20 09:46:16;;;;;;;14.85;13.32;;;9.00;99.90;;;;;;4970774;28;20031;-44
2023/04/20 09:49:04;;;;;;;15.55;12.88;;;8.90;99.90;;;;;;4970359;28;20019;-49
2023/04/20 09:51:51;;;;;;;15.75;13.88;;;8.90;99.90;;;;;;4965811;28;20023;-45
2023/04/20 09:54:37;;;;;;;13.88;12.48;;;9.10;99.90;;;;;;4970123;28;20085;-48
2023/04/20 09:57:25;;;;;;;15.95;12.95;;;9.30;99.90;;;;;;4968021;28;20039;-51
2023/04/20 10:00:11;;;;;;;15.40;13.80;;;9.60;99.90;;;;;;4978550;28;20102;-44
2023/04/20 10:02:57;;;;;;;15.55;14.02;;;9.70;99.90;;;;;;4972996;28;20035;-57
2023/04/20 10:05:43;;;;;;;15.75;14.25;;;9.70;99.90;;;;;;4971159;28;20114;-55
2023/04/20 10:08:40;;;;;;;15.35;13.25;;;9.60;99.90;;;;;;4970971;28;20114;-46
2023/04/20 10:11:34;;;;;;;14.32;12.02;;;9.60;99.90;;;;;;4960059;28;20129;-46
2023/04/20 10:14:22;;;;;;;13.45;12.00;;;10.00;99.90;;;;;;4962874;28;20034;-50
2023/04/20 10:17:10;;;;;;;14.00;12.70;;;10.40;99.90;;;;;;4982882;28;20018;-48
2023/04/20 10:19:56;;;;;;;14.15;12.05;;;10.40;99.90;;;;;;4991152;28;20403;-52
2023/04/20 10:22:42;;;;;;;13.82;12.43;;;10.50;99.90;;;;;;4982896;28;20034;-46
2023/04/20 10:25:28;;;;;;;14.57;13.07;;;10.60;99.90;;;;;;4977360;28;20023;-48
2023/04/20 10:28:14;;;;;;;14.00;12.60;;;10.70;99.90;;;;;;4959529;28;20110;-54
2023/04/20 10:31:00;;;;;;;14.05;12.65;;;10.60;99.90;;;;;;4968998;28;20408;-51
2023/04/20 10:33:51;;;;;;;15.43;13.32;;;10.70;99.90;;;;;;4953027;29;20070;-47
2023/04/20 10:36:37;;;;;;;14.98;13.38;;;10.80;99.90;;;;;;4961926;28;20066;-44
2023/04/20 10:39:24;;;;;;;15.23;13.13;;;10.60;99.90;;;;;;4982125;28;20043;-46
2023/04/20 10:42:11;;;;;;;14.20;12.70;;;10.50;99.90;;;;;;4974962;28;20026;-49
2023/04/20 10:44:56;;;;;;;15.20;13.70;;;10.40;99.90;;;;;;4975284;28;20027;-49
2023/04/20 10:47:44;;;;;;;15.20;13.60;;;10.50;99.90;;;;;;4973529;28;20422;-52
2023/04/20 10:50:30;;;;;;;14.45;12.95;;;10.50;99.90;;;;;;4982047;28;20054;-46
2023/04/20 10:53:20;;;;;;;14.25;12.65;;;10.70;99.90;;;;;;4973031;28;20444;-51
2023/04/20 10:56:06;;;;;;;14.85;13.25;;;11.00;99.90;;;;;;4968179;28;20077;-46
2023/04/20 10:58:53;;;;;;;15.27;13.75;;;11.10;99.90;;;;;;4964425;28;20032;-47
2023/04/20 11:01:40;;;;;;;15.95;14.13;;;11.00;99.90;;;;;;4975043;28;20078;-48
2023/04/20 11:04:32;;;;;;;17.08;14.23;;;10.60;99.90;;;;;;4974469;28;20403;-45
2023/04/20 11:07:19;;;;;;;14.52;13.05;;;10.50;99.90;;;;;;4973882;28;20066;-47
2023/04/20 11:10:06;;;;;;;15.88;14.13;;;10.60;99.90;;;;;;4972582;28;20030;-49
2023/04/20 11:12:52;;;;;;;15.35;13.70;;;10.80;99.90;;;;;;4977817;28;20057;-49
2023/04/20 11:15:38;;;;;;;15.90;13.52;;;10.90;99.90;;;;;;4980598;28;20030;-51
2023/04/20 11:18:24;;;;;;;17.05;12.73;;;11.00;99.90;;;;;;4961467;28;20041;-46
2023/04/20 11:21:10;;;;;;;14.20;12.68;;;11.10;99.90;;;;;;4978296;28;20038;-46
2023/04/20 11:23:56;;;;;;;27.77;23.20;;;11.00;99.90;;;;;;4972967;28;20166;-49
2023/04/20 11:26:42;;;;;;;19.73;17.40;;;10.80;99.90;;;;;;4974282;28;20023;-47
2023/04/20 11:29:34;;;;;;;14.45;13.02;;;10.40;99.80;;;;;;4971618;28;20030;-50
2023/04/20 11:32:20;;;;;;;13.63;11.60;;;10.40;99.90;;;;;;4973151;28;20428;-50
2023/04/20 11:35:09;;;;;;;12.10;10.90;;;10.30;99.80;;;;;;4972575;28;20093;-48
2023/04/20 11:37:56;;;;;;;14.52;11.77;;;10.20;99.60;;;;;;4972816;28;20031;-48
2023/04/20 11:40:42;;;;;;;12.50;11.10;;;10.20;99.90;;;;;;4951107;28;20059;-51
2023/04/20 11:43:28;;;;;;;15.68;11.05;;;10.10;99.90;;;;;;4971130;28;20623;-50
2023/04/20 11:46:20;;;;;;;12.25;10.93;;;10.10;99.90;;;;;;4968524;28;20023;-45
2023/04/20 11:49:05;;;;;;;12.07;10.88;;;10.20;99.80;;;;;;4964494;28;20056;-47
2023/04/20 11:51:52;;;;;;;13.57;12.18;;;10.20;99.90;;;;;;4971369;28;20043;-45
2023/04/20 11:54:38;;;;;;;15.45;13.05;;;10.30;99.90;;;;;;4969710;28;20495;-47
2023/04/20 11:57:24;;;;;;;14.68;11.70;;;10.30;99.90;;;;;;4972730;28;20042;-47
2023/04/20 12:00:11;;;;;;;13.38;12.00;;;10.20;99.90;;;;;;4971045;28;20031;-44
2023/04/20 12:02:58;;;;;;;13.48;12.07;;;9.90;99.90;;;;;;4970090;28;20023;-47
2023/04/20 12:05:44;;;;;;;15.10;11.90;;;9.60;99.90;;;;;;4971776;28;20098;-47
2023/04/20 12:08:30;;;;;;;14.27;12.48;;;9.50;99.90;;;;;;4967486;28;20042;-47
2023/04/20 12:11:16;;;;;;;13.00;11.25;;;9.50;99.90;;;;;;4971281;28;20059;-50
2023/04/20 12:14:03;;;;;;;14.55;12.63;;;9.40;99.90;;;;;;4969624;28;20026;-52
2023/04/20 12:16:49;;;;;;;21.67;13.55;;;9.40;99.90;;;;;;4971223;28;20026;-52
2023/04/20 12:19:35;;;;;;;14.40;12.90;;;9.30;99.90;;;;;;4955757;28;20031;-50
2023/04/20 12:22:21;;;;;;;18.08;13.70;;;9.30;99.90;;;;;;4971862;28;20038;-47
2023/04/20 12:25:07;;;;;;;15.45;12.98;;;9.10;99.90;;;;;;4972527;28;20106;-47
2023/04/20 12:27:53;;;;;;;15.85;13.35;;;9.00;99.90;;;;;;4971659;28;20031;-45
2023/04/20 12:30:39;;;;;;;16.83;13.27;;;8.90;99.90;;;;;;4972724;28;20503;-46
2023/04/20 12:33:25;;;;;;;16.20;13.73;;;8.90;99.90;;;;;;4973158;28;20034;-44
2023/04/20 12:36:11;;;;;;;15.02;13.20;;;8.80;99.90;;;;;;4973221;28;20046;-47
2023/04/20 12:38:57;;;;;;;15.18;13.43;;;8.90;99.90;;;;;;4972807;28;20035;-44
2023/04/20 12:41:43;;;;;;;14.88;12.98;;;8.90;99.90;;;;;;4973019;28;20511;-46
2023/04/20 12:44:29;;;;;;;15.45;12.95;;;8.80;99.90;;;;;;4973086;28;20125;-51
2023/04/20 12:47:15;;;;;;;15.35;12.57;;;8.80;99.90;;;;;;4972678;28;20503;-46
2023/04/20 12:50:02;;;;;;;14.20;12.73;;;8.80;99.90;;;;;;4972354;28;20121;-46
2023/04/20 12:52:48;;;;;;;13.75;12.27;;;8.90;99.90;;;;;;4970690;28;20459;-45
2023/04/20 12:55:34;;;;;;;14.35;12.85;;;9.00;99.90;;;;;;4970961;28;20038;-46
2023/04/20 12:58:20;;;;;;;14.32;12.63;;;9.00;99.90;;;;;;4955351;28;20023;-48
2023/04/20 13:01:06;;;;;;;15.25;12.93;;;8.90;99.90;;;;;;4975202;28;20050;-45
2023/04/20 13:03:52;;;;;;;15.02;11.95;;;8.70;99.90;;;;;;4967840;28;20093;-45
2023/04/20 13:06:37;;;;;;;16.20;13.20;;;8.80;99.90;;;;;;4981480;28;20161;-49
2023/04/20 13:09:25;;;;;;;11.55;10.35;;;8.90;99.90;;;;;;4972846;28;20031;-50
2023/04/20 13:12:12;;;;;;;13.57;11.02;;;8.80;99.90;;;;;;4973754;28;20066;-49
2023/04/20 13:14:57;;;;;;;15.20;10.70;;;8.90;99.90;;;;;;4971993;28;20085;-47
2023/04/20 13:17:44;;;;;;;14.25;10.75;;;8.90;99.90;;;;;;4971502;28;20031;-46
2023/04/20 13:20:30;;;;;;;15.23;12.05;;;9.00;99.90;;;;;;4972199;28;20089;-45
2023/04/20 13:23:16;;;;;;;14.57;12.40;;;9.10;99.90;;;;;;4972141;28;20121;-47
2023/04/20 13:26:02;;;;;;;15.98;13.02;;;9.10;99.90;;;;;;4971588;28;20105;-47
2023/04/20 13:28:48;;;;;;;14.75;12.23;;;9.10;99.90;;;;;;4971855;28;20026;-49
2023/04/20 13:31:34;;;;;;;15.82;12.20;;;9.10;99.90;;;;;;4972000;28;20074;-47
2023/04/20 13:34:20;;;;;;;17.20;12.90;;;9.20;99.90;;;;;;4975390;28;20035;-52
2023/04/20 13:37:06;;;;;;;14.90;12.80;;;9.10;99.90;;;;;;4978566;28;20030;-52
2023/04/20 13:39:52;;;;;;;16.75;13.80;;;9.20;99.90;;;;;;4965196;28;20030;-50
2023/04/20 13:42:37;;;;;;;16.30;13.48;;;9.10;99.90;;;;;;4983374;28;20038;-45
2023/04/20 13:45:24;;;;;;;17.80;14.38;;;9.20;99.90;;;;;;4992243;28;20113;-45
2023/04/20 13:48:10;;;;;;;15.73;14.02;;;9.20;99.90;;;;;;4990740;28;20022;-48
2023/04/20 13:50:55;;;;;;;16.45;14.02;;;9.20;99.90;;;;;;4992126;28;20105;-47
2023/04/20 13:53:42;;;;;;;20.08;14.38;;;9.20;99.90;;;;;;4969403;28;20050;-46
2023/04/20 13:56:28;;;;;;;19.45;15.70;;;9.20;99.90;;;;;;4968770;28;20031;-49
2023/04/20 13:59:14;;;;;;;18.75;16.10;;;9.00;99.90;;;;;;4969724;28;20487;-50
2023/04/20 14:02:00;;;;;;;20.60;17.15;;;9.10;99.90;;;;;;4974808;28;20074;-46
2023/04/20 14:04:46;;;;;;;21.10;18.48;;;9.00;99.90;;;;;;4970735;28;20029;-47
2023/04/20 14:07:32;;;;;;;22.83;19.00;;;9.00;99.90;;;;;;4968764;28;20030;-47
2023/04/20 14:10:18;;;;;;;23.77;18.95;;;9.00;99.90;;;;;;4969985;28;20465;-47
2023/04/20 14:13:04;;;;;;;22.00;18.45;;;8.90;99.90;;;;;;4969368;28;20643;-49
2023/04/20 14:15:51;;;;;;;23.88;17.67;;;8.90;99.90;;;;;;4973827;28;20058;-45